Pine Knot, Kentucky
Current Conditions -  °F | °C
As of 3:56 PM on Saturday 22 Nov 2014 (Local Time) from KEKQ Reporting Station
Clear Clear  
Wind Chill: 62°   Ceiling: Unl
Heat Index: 62°   Visibility: 10mi
Dew Point: 30°   Wind: 16mph
Humidity: 30%   Direction: 170°S
Pressure: 30.22"   Gusts: 20mph
Location:  36.65°N, 84.44°W
Report Text: KEKQ 222056Z AUTO 17014G17KT 10SM CLR 17/M01 A3022 RMK AO2 56032 T01661011 SLP236
Loading
Personal Weather Stations






























Interactive Weather Map New forecast layout! Learn more

10-Day Weather Forecast

Advertisements
Track Severe Weather on mobile